sensor_id;sensor_type;location;lat;lon;timestamp;P1;durP1;ratioP1;P2;durP2;ratioP2
75356;SDS011;63946;51.986;5.930;2023-07-22T06:43:08;19.02;;;12.75;;
75356;SDS011;63946;51.986;5.930;2023-07-22T06:45:38;18.90;;;13.32;;
75356;SDS011;63946;51.986;5.930;2023-07-22T06:48:07;19.55;;;12.48;;
75356;SDS011;63946;51.986;5.930;2023-07-22T06:50:38;19.95;;;12.02;;
75356;SDS011;63946;51.986;5.930;2023-07-22T06:53:09;23.98;;;12.02;;
75356;SDS011;63946;51.986;5.930;2023-07-22T06:55:47;17.73;;;12.18;;
75356;SDS011;63946;51.986;5.930;2023-07-22T06:58:20;19.63;;;11.82;;
75356;SDS011;63946;51.986;5.930;2023-07-22T07:01:02;21.13;;;11.63;;
75356;SDS011;63946;51.986;5.930;2023-07-22T07:03:39;17.73;;;11.80;;
75356;SDS011;63946;51.986;5.930;2023-07-22T07:06:11;16.00;;;10.32;;
75356;SDS011;63946;51.986;5.930;2023-07-22T07:08:40;16.70;;;11.45;;
75356;SDS011;63946;51.986;5.930;2023-07-22T07:11:09;15.35;;;11.38;;
75356;SDS011;63946;51.986;5.930;2023-07-22T07:13:37;16.92;;;11.95;;
75356;SDS011;63946;51.986;5.930;2023-07-22T07:16:31;19.77;;;11.18;;
75356;SDS011;63946;51.986;5.930;2023-07-22T07:19:00;16.48;;;11.18;;
75356;SDS011;63946;51.986;5.930;2023-07-22T07:21:29;15.32;;;10.88;;
75356;SDS011;63946;51.986;5.930;2023-07-22T07:23:58;16.17;;;11.57;;
75356;SDS011;63946;51.986;5.930;2023-07-22T07:26:27;14.73;;;9.88;;
75356;SDS011;63946;51.986;5.930;2023-07-22T07:28:56;16.17;;;10.63;;
75356;SDS011;63946;51.986;5.930;2023-07-22T07:31:25;17.77;;;10.93;;
75356;SDS011;63946;51.986;5.930;2023-07-22T07:33:59;14.55;;;10.35;;
75356;SDS011;63946;51.986;5.930;2023-07-22T07:36:31;17.45;;;10.55;;
75356;SDS011;63946;51.986;5.930;2023-07-22T07:39:02;17.75;;;10.63;;
75356;SDS011;63946;51.986;5.930;2023-07-22T07:41:32;15.57;;;9.38;;
75356;SDS011;63946;51.986;5.930;2023-07-22T07:44:03;16.00;;;10.05;;
75356;SDS011;63946;51.986;5.930;2023-07-22T07:46:32;16.40;;;9.32;;
75356;SDS011;63946;51.986;5.930;2023-07-22T07:49:01;13.27;;;8.85;;
75356;SDS011;63946;51.986;5.930;2023-07-22T07:51:30;14.35;;;9.88;;
75356;SDS011;63946;51.986;5.930;2023-07-22T07:54:02;14.13;;;9.57;;
75356;SDS011;63946;51.986;5.930;2023-07-22T07:56:33;12.65;;;8.13;;
75356;SDS011;63946;51.986;5.930;2023-07-22T07:59:05;16.63;;;9.18;;
75356;SDS011;63946;51.986;5.930;2023-07-22T08:01:38;15.10;;;8.90;;
75356;SDS011;63946;51.986;5.930;2023-07-22T08:04:10;13.48;;;8.43;;
75356;SDS011;63946;51.986;5.930;2023-07-22T08:06:38;12.68;;;9.05;;
75356;SDS011;63946;51.986;5.930;2023-07-22T08:09:07;20.65;;;9.35;;
75356;SDS011;63946;51.986;5.930;2023-07-22T08:11:37;10.68;;;7.68;;
75356;SDS011;63946;51.986;5.930;2023-07-22T08:14:10;10.15;;;7.65;;
75356;SDS011;63946;51.986;5.930;2023-07-22T08:16:39;11.68;;;7.53;;
75356;SDS011;63946;51.986;5.930;2023-07-22T08:19:09;11.32;;;7.20;;
75356;SDS011;63946;51.986;5.930;2023-07-22T08:21:38;10.27;;;6.72;;
75356;SDS011;63946;51.986;5.930;2023-07-22T08:24:07;13.80;;;7.85;;
75356;SDS011;63946;51.986;5.930;2023-07-22T08:26:39;8.95;;;7.25;;
75356;SDS011;63946;51.986;5.930;2023-07-22T08:29:08;13.25;;;7.70;;
75356;SDS011;63946;51.986;5.930;2023-07-22T08:31:36;13.00;;;7.97;;
75356;SDS011;63946;51.986;5.930;2023-07-22T08:34:09;12.95;;;9.02;;
75356;SDS011;63946;51.986;5.930;2023-07-22T08:36:38;11.60;;;7.63;;
75356;SDS011;63946;51.986;5.930;2023-07-22T08:39:06;10.80;;;7.75;;
75356;SDS011;63946;51.986;5.930;2023-07-22T08:41:41;11.35;;;7.45;;
75356;SDS011;63946;51.986;5.930;2023-07-22T08:44:19;11.98;;;7.43;;
75356;SDS011;63946;51.986;5.930;2023-07-22T08:46:49;11.57;;;7.97;;
75356;SDS011;63946;51.986;5.930;2023-07-22T08:49:26;10.73;;;7.32;;
75356;SDS011;63946;51.986;5.930;2023-07-22T08:51:56;9.98;;;7.10;;
75356;SDS011;63946;51.986;5.930;2023-07-22T08:54:28;13.77;;;8.60;;
75356;SDS011;63946;51.986;5.930;2023-07-22T08:56:57;11.95;;;8.52;;
75356;SDS011;63946;51.986;5.930;2023-07-22T08:59:26;11.48;;;8.15;;
75356;SDS011;63946;51.986;5.930;2023-07-22T09:01:55;11.27;;;7.82;;
75356;SDS011;63946;51.986;5.930;2023-07-22T09:06:54;10.73;;;7.95;;
75356;SDS011;63946;51.986;5.930;2023-07-22T09:09:26;11.15;;;7.20;;
75356;SDS011;63946;51.986;5.930;2023-07-22T09:11:55;10.50;;;7.40;;
75356;SDS011;63946;51.986;5.930;2023-07-22T09:14:25;13.50;;;8.65;;
75356;SDS011;63946;51.986;5.930;2023-07-22T09:16:57;10.90;;;7.53;;
75356;SDS011;63946;51.986;5.930;2023-07-22T09:19:26;10.05;;;7.07;;
75356;SDS011;63946;51.986;5.930;2023-07-22T09:21:55;8.00;;;6.07;;
75356;SDS011;63946;51.986;5.930;2023-07-22T09:24:25;13.32;;;7.95;;
75356;SDS011;63946;51.986;5.930;2023-07-22T09:26:57;10.32;;;5.97;;
75356;SDS011;63946;51.986;5.930;2023-07-22T09:29:33;12.38;;;8.27;;
75356;SDS011;63946;51.986;5.930;2023-07-22T09:32:08;10.43;;;6.60;;
75356;SDS011;63946;51.986;5.930;2023-07-22T09:34:37;9.57;;;6.50;;
75356;SDS011;63946;51.986;5.930;2023-07-22T09:37:07;10.25;;;5.97;;
75356;SDS011;63946;51.986;5.930;2023-07-22T09:39:36;7.47;;;5.22;;
75356;SDS011;63946;51.986;5.930;2023-07-22T09:42:08;7.78;;;4.57;;
75356;SDS011;63946;51.986;5.930;2023-07-22T09:44:37;7.53;;;5.00;;
75356;SDS011;63946;51.986;5.930;2023-07-22T09:47:09;5.38;;;4.22;;
75356;SDS011;63946;51.986;5.930;2023-07-22T09:49:40;7.28;;;4.88;;
75356;SDS011;63946;51.986;5.930;2023-07-22T09:52:11;5.70;;;4.43;;
75356;SDS011;63946;51.986;5.930;2023-07-22T09:54:47;7.35;;;5.13;;
75356;SDS011;63946;51.986;5.930;2023-07-22T09:57:22;6.90;;;4.93;;
75356;SDS011;63946;51.986;5.930;2023-07-22T09:59:53;6.55;;;4.05;;
75356;SDS011;63946;51.986;5.930;2023-07-22T10:02:23;5.75;;;4.55;;
75356;SDS011;63946;51.986;5.930;2023-07-22T10:04:52;6.68;;;4.65;;
75356;SDS011;63946;51.986;5.930;2023-07-22T10:07:27;7.68;;;5.05;;
75356;SDS011;63946;51.986;5.930;2023-07-22T10:09:56;11.25;;;5.47;;
75356;SDS011;63946;51.986;5.930;2023-07-22T10:12:26;7.20;;;5.43;;
75356;SDS011;63946;51.986;5.930;2023-07-22T10:14:58;6.95;;;3.75;;
75356;SDS011;63946;51.986;5.930;2023-07-22T10:17:30;7.20;;;5.07;;
75356;SDS011;63946;51.986;5.930;2023-07-22T10:19:59;8.95;;;5.50;;
75356;SDS011;63946;51.986;5.930;2023-07-22T10:22:32;7.15;;;5.40;;
75356;SDS011;63946;51.986;5.930;2023-07-22T10:25:06;7.25;;;4.75;;
75356;SDS011;63946;51.986;5.930;2023-07-22T10:27:42;8.35;;;4.63;;
75356;SDS011;63946;51.986;5.930;2023-07-22T10:30:16;7.20;;;4.07;;
75356;SDS011;63946;51.986;5.930;2023-07-22T10:38:12;7.20;;;4.82;;
75356;SDS011;63946;51.986;5.930;2023-07-22T10:40:49;7.65;;;4.60;;
75356;SDS011;63946;51.986;5.930;2023-07-22T10:43:25;5.88;;;4.13;;
75356;SDS011;63946;51.986;5.930;2023-07-22T10:45:55;5.03;;;3.90;;
75356;SDS011;63946;51.986;5.930;2023-07-22T10:48:34;5.18;;;4.22;;
75356;SDS011;63946;51.986;5.930;2023-07-22T10:51:13;7.35;;;4.85;;
75356;SDS011;63946;51.986;5.930;2023-07-22T10:53:44;7.95;;;4.43;;
75356;SDS011;63946;51.986;5.930;2023-07-22T10:56:19;5.53;;;4.65;;
75356;SDS011;63946;51.986;5.930;2023-07-22T11:15:02;5.82;;;3.65;;
75356;SDS011;63946;51.986;5.930;2023-07-22T11:17:32;5.18;;;3.60;;
75356;SDS011;63946;51.986;5.930;2023-07-22T11:20:06;5.63;;;3.88;;
75356;SDS011;63946;51.986;5.930;2023-07-22T11:22:38;4.82;;;3.72;;
75356;SDS011;63946;51.986;5.930;2023-07-22T11:25:16;5.32;;;3.30;;
75356;SDS011;63946;51.986;5.930;2023-07-22T11:27:49;6.72;;;3.58;;
75356;SDS011;63946;51.986;5.930;2023-07-22T11:30:18;6.35;;;3.95;;
75356;SDS011;63946;51.986;5.930;2023-07-22T11:32:57;7.53;;;4.32;;
75356;SDS011;63946;51.986;5.930;2023-07-22T11:35:29;5.75;;;3.65;;
75356;SDS011;63946;51.986;5.930;2023-07-22T11:38:01;5.35;;;3.53;;
75356;SDS011;63946;51.986;5.930;2023-07-22T11:40:36;7.30;;;3.60;;
75356;SDS011;63946;51.986;5.930;2023-07-22T11:43:05;5.57;;;3.60;;
75356;SDS011;63946;51.986;5.930;2023-07-22T11:45:39;8.60;;;3.53;;
75356;SDS011;63946;51.986;5.930;2023-07-22T11:48:10;9.35;;;3.70;;
75356;SDS011;63946;51.986;5.930;2023-07-22T11:50:42;7.05;;;2.92;;
75356;SDS011;63946;51.986;5.930;2023-07-22T11:53:11;5.30;;;2.97;;
75356;SDS011;63946;51.986;5.930;2023-07-22T11:55:40;4.78;;;3.15;;
75356;SDS011;63946;51.986;5.930;2023-07-22T11:58:09;6.85;;;3.25;;
75356;SDS011;63946;51.986;5.930;2023-07-22T12:00:42;3.85;;;3.00;;
75356;SDS011;63946;51.986;5.930;2023-07-22T12:03:13;5.40;;;3.33;;
75356;SDS011;63946;51.986;5.930;2023-07-22T12:05:45;6.25;;;3.13;;
75356;SDS011;63946;51.986;5.930;2023-07-22T12:08:14;6.25;;;3.05;;
75356;SDS011;63946;51.986;5.930;2023-07-22T12:10:46;5.05;;;3.20;;
75356;SDS011;63946;51.986;5.930;2023-07-22T12:13:29;10.00;;;3.65;;
75356;SDS011;63946;51.986;5.930;2023-07-22T12:16:19;5.35;;;2.97;;
75356;SDS011;63946;51.986;5.930;2023-07-22T12:18:55;3.90;;;2.97;;
75356;SDS011;63946;51.986;5.930;2023-07-22T12:21:24;7.07;;;2.95;;
75356;SDS011;63946;51.986;5.930;2023-07-22T12:23:57;6.03;;;2.92;;
75356;SDS011;63946;51.986;5.930;2023-07-22T12:26:29;6.05;;;2.40;;
75356;SDS011;63946;51.986;5.930;2023-07-22T12:29:01;4.32;;;2.88;;
75356;SDS011;63946;51.986;5.930;2023-07-22T12:34:31;3.75;;;2.22;;
75356;SDS011;63946;51.986;5.930;2023-07-22T12:37:03;4.10;;;2.53;;
75356;SDS011;63946;51.986;5.930;2023-07-22T12:39:34;7.68;;;3.53;;
75356;SDS011;63946;51.986;5.930;2023-07-22T12:42:12;5.35;;;2.50;;
75356;SDS011;63946;51.986;5.930;2023-07-22T12:44:41;5.18;;;2.20;;
75356;SDS011;63946;51.986;5.930;2023-07-22T12:47:13;4.72;;;2.40;;
75356;SDS011;63946;51.986;5.930;2023-07-22T12:49:44;4.30;;;2.88;;
75356;SDS011;63946;51.986;5.930;2023-07-22T12:52:24;7.50;;;3.13;;
75356;SDS011;63946;51.986;5.930;2023-07-22T12:54:56;4.18;;;3.28;;
75356;SDS011;63946;51.986;5.930;2023-07-22T12:57:25;5.03;;;2.90;;
75356;SDS011;63946;51.986;5.930;2023-07-22T12:59:56;4.05;;;2.85;;
75356;SDS011;63946;51.986;5.930;2023-07-22T13:04:59;3.90;;;2.75;;
75356;SDS011;63946;51.986;5.930;2023-07-22T13:07:37;8.05;;;3.15;;
75356;SDS011;63946;51.986;5.930;2023-07-22T13:10:09;3.88;;;2.55;;
75356;SDS011;63946;51.986;5.930;2023-07-22T13:12:45;6.20;;;3.03;;
75356;SDS011;63946;51.986;5.930;2023-07-22T13:15:23;5.22;;;2.80;;
75356;SDS011;63946;51.986;5.930;2023-07-22T13:17:55;4.43;;;3.28;;
75356;SDS011;63946;51.986;5.930;2023-07-22T13:20:27;4.97;;;2.88;;
75356;SDS011;63946;51.986;5.930;2023-07-22T13:22:57;5.43;;;2.92;;
75356;SDS011;63946;51.986;5.930;2023-07-22T13:25:26;7.18;;;2.95;;
75356;SDS011;63946;51.986;5.930;2023-07-22T13:27:59;4.50;;;2.83;;
75356;SDS011;63946;51.986;5.930;2023-07-22T13:30:28;8.18;;;3.10;;
75356;SDS011;63946;51.986;5.930;2023-07-22T13:33:05;4.45;;;2.88;;
75356;SDS011;63946;51.986;5.930;2023-07-22T13:35:34;7.15;;;3.05;;
75356;SDS011;63946;51.986;5.930;2023-07-22T13:38:11;4.72;;;2.78;;
75356;SDS011;63946;51.986;5.930;2023-07-22T13:44:03;6.38;;;3.25;;
75356;SDS011;63946;51.986;5.930;2023-07-22T13:46:36;5.50;;;3.08;;
75356;SDS011;63946;51.986;5.930;2023-07-22T13:49:05;10.43;;;3.90;;
75356;SDS011;63946;51.986;5.930;2023-07-22T13:51:35;5.72;;;2.75;;
75356;SDS011;63946;51.986;5.930;2023-07-22T13:54:04;5.07;;;2.70;;
75356;SDS011;63946;51.986;5.930;2023-07-22T13:56:35;6.30;;;3.22;;
75356;SDS011;63946;51.986;5.930;2023-07-22T13:59:09;5.68;;;3.10;;
75356;SDS011;63946;51.986;5.930;2023-07-22T14:01:40;11.10;;;3.80;;
75356;SDS011;63946;51.986;5.930;2023-07-22T14:04:10;9.07;;;3.20;;
75356;SDS011;63946;51.986;5.930;2023-07-22T14:06:38;4.90;;;3.50;;
75356;SDS011;63946;51.986;5.930;2023-07-22T14:09:10;3.85;;;2.70;;
75356;SDS011;63946;51.986;5.930;2023-07-22T14:11:44;5.53;;;3.08;;
75356;SDS011;63946;51.986;5.930;2023-07-22T14:14:16;3.80;;;2.90;;
75356;SDS011;63946;51.986;5.930;2023-07-22T14:16:48;5.53;;;3.03;;
75356;SDS011;63946;51.986;5.930;2023-07-22T14:19:17;4.03;;;2.70;;
75356;SDS011;63946;51.986;5.930;2023-07-22T14:21:49;4.93;;;2.90;;
75356;SDS011;63946;51.986;5.930;2023-07-22T14:24:21;5.75;;;3.35;;
75356;SDS011;63946;51.986;5.930;2023-07-22T14:26:53;4.70;;;3.08;;
75356;SDS011;63946;51.986;5.930;2023-07-22T14:29:24;4.28;;;3.50;;
75356;SDS011;63946;51.986;5.930;2023-07-22T14:31:55;5.07;;;3.40;;
75356;SDS011;63946;51.986;5.930;2023-07-22T14:34:27;7.47;;;3.88;;
75356;SDS011;63946;51.986;5.930;2023-07-22T14:36:56;5.20;;;3.47;;
75356;SDS011;63946;51.986;5.930;2023-07-22T14:39:28;7.10;;;3.75;;
75356;SDS011;63946;51.986;5.930;2023-07-22T14:42:06;4.50;;;3.63;;
75356;SDS011;63946;51.986;5.930;2023-07-22T14:44:35;5.18;;;3.35;;
75356;SDS011;63946;51.986;5.930;2023-07-22T14:47:04;4.38;;;3.35;;
75356;SDS011;63946;51.986;5.930;2023-07-22T14:49:44;4.18;;;2.72;;
75356;SDS011;63946;51.986;5.930;2023-07-22T14:52:13;5.90;;;3.13;;
75356;SDS011;63946;51.986;5.930;2023-07-22T14:54:43;4.75;;;2.88;;
75356;SDS011;63946;51.986;5.930;2023-07-22T14:57:12;5.50;;;2.75;;
75356;SDS011;63946;51.986;5.930;2023-07-22T14:59:46;4.72;;;2.88;;
75356;SDS011;63946;51.986;5.930;2023-07-22T15:02:16;4.93;;;3.13;;
75356;SDS011;63946;51.986;5.930;2023-07-22T15:04:47;6.60;;;2.92;;
75356;SDS011;63946;51.986;5.930;2023-07-22T15:07:16;5.70;;;3.25;;
75356;SDS011;63946;51.986;5.930;2023-07-22T15:09:46;5.13;;;2.90;;
75356;SDS011;63946;51.986;5.930;2023-07-22T15:12:18;5.53;;;4.65;;
75356;SDS011;63946;51.986;5.930;2023-07-22T15:14:47;4.38;;;2.80;;
75356;SDS011;63946;51.986;5.930;2023-07-22T15:17:20;4.65;;;3.22;;
75356;SDS011;63946;51.986;5.930;2023-07-22T15:19:49;4.45;;;3.00;;
75356;SDS011;63946;51.986;5.930;2023-07-22T15:22:18;5.85;;;2.80;;
75356;SDS011;63946;51.986;5.930;2023-07-22T15:24:49;3.05;;;2.22;;
75356;SDS011;63946;51.986;5.930;2023-07-22T15:27:18;3.85;;;2.58;;
75356;SDS011;63946;51.986;5.930;2023-07-22T15:29:48;5.20;;;2.53;;
75356;SDS011;63946;51.986;5.930;2023-07-22T15:32:20;8.50;;;2.55;;
75356;SDS011;63946;51.986;5.930;2023-07-22T15:34:56;5.03;;;2.83;;
75356;SDS011;63946;51.986;5.930;2023-07-22T15:37:28;10.10;;;2.63;;
75356;SDS011;63946;51.986;5.930;2023-07-22T15:40:09;4.53;;;3.00;;
75356;SDS011;63946;51.986;5.930;2023-07-22T15:42:38;3.17;;;2.42;;
75356;SDS011;63946;51.986;5.930;2023-07-22T15:45:07;5.28;;;2.45;;
75356;SDS011;63946;51.986;5.930;2023-07-22T15:47:39;3.80;;;2.08;;
75356;SDS011;63946;51.986;5.930;2023-07-22T15:50:10;6.55;;;2.35;;
75356;SDS011;63946;51.986;5.930;2023-07-22T15:52:39;3.88;;;2.53;;
75356;SDS011;63946;51.986;5.930;2023-07-22T15:55:08;3.00;;;2.65;;
75356;SDS011;63946;51.986;5.930;2023-07-22T15:57:37;4.75;;;2.45;;
75356;SDS011;63946;51.986;5.930;2023-07-22T16:00:07;4.22;;;3.47;;
75356;SDS011;63946;51.986;5.930;2023-07-22T16:02:39;6.35;;;3.78;;
75356;SDS011;63946;51.986;5.930;2023-07-22T16:05:11;5.10;;;3.35;;
75356;SDS011;63946;51.986;5.930;2023-07-22T16:07:43;3.65;;;3.10;;
75356;SDS011;63946;51.986;5.930;2023-07-22T16:10:13;4.57;;;2.58;;
75356;SDS011;63946;51.986;5.930;2023-07-22T16:12:45;4.65;;;2.80;;
75356;SDS011;63946;51.986;5.930;2023-07-22T16:15:14;3.38;;;2.25;;
75356;SDS011;63946;51.986;5.930;2023-07-22T16:17:44;5.90;;;2.90;;
75356;SDS011;63946;51.986;5.930;2023-07-22T16:20:13;4.72;;;2.53;;
75356;SDS011;63946;51.986;5.930;2023-07-22T16:22:43;5.28;;;2.35;;
75356;SDS011;63946;51.986;5.930;2023-07-22T16:25:12;5.10;;;3.15;;
75356;SDS011;63946;51.986;5.930;2023-07-22T16:27:46;99.15;;;63.00;;
75356;SDS011;63946;51.986;5.930;2023-07-22T16:30:15;60.08;;;40.38;;
75356;SDS011;63946;51.986;5.930;2023-07-22T16:32:44;28.95;;;19.92;;
75356;SDS011;63946;51.986;5.930;2023-07-22T16:35:16;12.43;;;9.10;;
75356;SDS011;63946;51.986;5.930;2023-07-22T16:37:46;6.75;;;5.50;;
75356;SDS011;63946;51.986;5.930;2023-07-22T16:40:14;9.95;;;4.13;;
75356;SDS011;63946;51.986;5.930;2023-07-22T16:42:43;4.43;;;3.45;;
75356;SDS011;63946;51.986;5.930;2023-07-22T16:45:12;4.80;;;2.90;;
75356;SDS011;63946;51.986;5.930;2023-07-22T16:47:47;5.63;;;3.40;;
75356;SDS011;63946;51.986;5.930;2023-07-22T16:50:19;4.20;;;3.17;;
75356;SDS011;63946;51.986;5.930;2023-07-22T16:52:49;6.05;;;3.20;;
75356;SDS011;63946;51.986;5.930;2023-07-22T16:55:18;3.25;;;2.53;;
75356;SDS011;63946;51.986;5.930;2023-07-22T16:57:47;4.80;;;2.80;;
75356;SDS011;63946;51.986;5.930;2023-07-22T17:00:19;5.70;;;3.05;;
75356;SDS011;63946;51.986;5.930;2023-07-22T17:02:48;3.60;;;2.80;;
75356;SDS011;63946;51.986;5.930;2023-07-22T17:05:22;4.32;;;2.85;;
75356;SDS011;63946;51.986;5.930;2023-07-22T17:07:53;4.55;;;3.33;;
75356;SDS011;63946;51.986;5.930;2023-07-22T17:10:30;5.07;;;2.33;;
75356;SDS011;63946;51.986;5.930;2023-07-22T17:13:02;5.25;;;2.90;;
75356;SDS011;63946;51.986;5.930;2023-07-22T17:15:33;4.85;;;3.08;;
75356;SDS011;63946;51.986;5.930;2023-07-22T17:18:02;4.90;;;2.72;;
75356;SDS011;63946;51.986;5.930;2023-07-22T17:20:33;3.60;;;2.80;;
75356;SDS011;63946;51.986;5.930;2023-07-22T17:23:02;4.50;;;3.00;;
75356;SDS011;63946;51.986;5.930;2023-07-22T17:25:31;4.07;;;2.92;;
75356;SDS011;63946;51.986;5.930;2023-07-22T17:28:00;4.05;;;2.80;;
75356;SDS011;63946;51.986;5.930;2023-07-22T17:30:29;4.15;;;3.42;;
75356;SDS011;63946;51.986;5.930;2023-07-22T17:32:58;4.82;;;3.00;;
75356;SDS011;63946;51.986;5.930;2023-07-22T17:35:30;4.53;;;2.92;;
75356;SDS011;63946;51.986;5.930;2023-07-22T17:38:06;6.05;;;4.88;;
75356;SDS011;63946;51.986;5.930;2023-07-22T17:40:35;5.88;;;3.17;;
75356;SDS011;63946;51.986;5.930;2023-07-22T17:43:06;4.05;;;2.90;;
75356;SDS011;63946;51.986;5.930;2023-07-22T17:45:35;4.53;;;3.22;;
75356;SDS011;63946;51.986;5.930;2023-07-22T17:48:14;3.92;;;2.63;;
75356;SDS011;63946;51.986;5.930;2023-07-22T17:50:43;5.80;;;2.85;;
75356;SDS011;63946;51.986;5.930;2023-07-22T17:53:12;4.78;;;2.50;;
75356;SDS011;63946;51.986;5.930;2023-07-22T17:55:44;5.25;;;2.45;;
75356;SDS011;63946;51.986;5.930;2023-07-22T17:58:14;5.20;;;2.75;;
75356;SDS011;63946;51.986;5.930;2023-07-22T18:00:49;4.32;;;2.85;;
75356;SDS011;63946;51.986;5.930;2023-07-22T18:03:18;5.65;;;2.65;;
75356;SDS011;63946;51.986;5.930;2023-07-22T18:05:48;3.72;;;2.92;;
75356;SDS011;63946;51.986;5.930;2023-07-22T18:08:23;6.50;;;2.88;;
75356;SDS011;63946;51.986;5.930;2023-07-22T18:10:57;4.25;;;2.85;;
75356;SDS011;63946;51.986;5.930;2023-07-22T18:13:26;5.20;;;2.67;;
75356;SDS011;63946;51.986;5.930;2023-07-22T18:15:57;10.05;;;2.38;;
75356;SDS011;63946;51.986;5.930;2023-07-22T18:18:29;7.50;;;2.47;;
75356;SDS011;63946;51.986;5.930;2023-07-22T18:21:00;3.53;;;1.83;;
75356;SDS011;63946;51.986;5.930;2023-07-22T18:23:30;4.53;;;2.55;;
75356;SDS011;63946;51.986;5.930;2023-07-22T18:25:59;4.78;;;3.00;;
75356;SDS011;63946;51.986;5.930;2023-07-22T18:28:28;5.15;;;2.83;;
75356;SDS011;63946;51.986;5.930;2023-07-22T18:30:59;4.88;;;2.13;;
75356;SDS011;63946;51.986;5.930;2023-07-22T18:33:28;4.10;;;2.20;;
75356;SDS011;63946;51.986;5.930;2023-07-22T18:35:57;3.17;;;2.08;;
75356;SDS011;63946;51.986;5.930;2023-07-22T18:38:30;3.72;;;2.00;;
75356;SDS011;63946;51.986;5.930;2023-07-22T18:40:59;3.65;;;1.80;;
75356;SDS011;63946;51.986;5.930;2023-07-22T18:43:44;3.90;;;1.83;;
75356;SDS011;63946;51.986;5.930;2023-07-22T18:46:17;3.78;;;2.40;;
75356;SDS011;63946;51.986;5.930;2023-07-22T18:48:52;3.13;;;2.13;;
75356;SDS011;63946;51.986;5.930;2023-07-22T18:51:24;5.55;;;2.40;;
75356;SDS011;63946;51.986;5.930;2023-07-22T18:53:57;4.57;;;2.30;;
75356;SDS011;63946;51.986;5.930;2023-07-22T18:56:27;5.97;;;2.40;;
75356;SDS011;63946;51.986;5.930;2023-07-22T18:58:56;4.93;;;2.38;;
75356;SDS011;63946;51.986;5.930;2023-07-22T19:01:25;4.43;;;2.40;;
75356;SDS011;63946;51.986;5.930;2023-07-22T19:03:55;3.38;;;2.28;;
75356;SDS011;63946;51.986;5.930;2023-07-22T19:06:26;4.78;;;3.03;;
75356;SDS011;63946;51.986;5.930;2023-07-22T19:08:57;5.68;;;3.03;;
75356;SDS011;63946;51.986;5.930;2023-07-22T19:11:27;5.13;;;2.60;;
75356;SDS011;63946;51.986;5.930;2023-07-22T19:13:58;4.55;;;2.50;;
75356;SDS011;63946;51.986;5.930;2023-07-22T19:16:29;3.72;;;2.22;;
75356;SDS011;63946;51.986;5.930;2023-07-22T19:18:58;5.75;;;2.78;;
75356;SDS011;63946;51.986;5.930;2023-07-22T19:21:30;4.85;;;3.20;;
75356;SDS011;63946;51.986;5.930;2023-07-22T19:24:02;5.65;;;3.08;;
75356;SDS011;63946;51.986;5.930;2023-07-22T19:26:31;4.80;;;2.75;;
75356;SDS011;63946;51.986;5.930;2023-07-22T19:29:00;5.15;;;3.03;;
75356;SDS011;63946;51.986;5.930;2023-07-22T19:31:32;5.90;;;3.13;;
75356;SDS011;63946;51.986;5.930;2023-07-22T19:34:01;6.07;;;2.40;;
75356;SDS011;63946;51.986;5.930;2023-07-22T19:36:38;5.32;;;2.75;;
75356;SDS011;63946;51.986;5.930;2023-07-22T19:39:07;4.85;;;2.65;;
75356;SDS011;63946;51.986;5.930;2023-07-22T19:41:40;6.22;;;3.25;;
75356;SDS011;63946;51.986;5.930;2023-07-22T19:44:20;5.35;;;3.10;;
75356;SDS011;63946;51.986;5.930;2023-07-22T19:46:49;4.82;;;3.00;;
75356;SDS011;63946;51.986;5.930;2023-07-22T19:49:18;5.93;;;3.50;;
75356;SDS011;63946;51.986;5.930;2023-07-22T19:51:49;4.07;;;2.78;;
75356;SDS011;63946;51.986;5.930;2023-07-22T19:54:25;5.20;;;3.30;;
75356;SDS011;63946;51.986;5.930;2023-07-22T19:56:54;5.97;;;3.00;;
75356;SDS011;63946;51.986;5.930;2023-07-22T19:59:23;5.47;;;3.00;;
75356;SDS011;63946;51.986;5.930;2023-07-22T20:01:53;5.03;;;3.05;;
75356;SDS011;63946;51.986;5.930;2023-07-22T20:04:26;4.55;;;2.50;;
75356;SDS011;63946;51.986;5.930;2023-07-22T20:06:59;7.38;;;3.45;;
75356;SDS011;63946;51.986;5.930;2023-07-22T20:09:31;4.63;;;3.05;;
75356;SDS011;63946;51.986;5.930;2023-07-22T20:12:00;5.43;;;3.13;;
75356;SDS011;63946;51.986;5.930;2023-07-22T20:14:31;4.93;;;2.50;;
75356;SDS011;63946;51.986;5.930;2023-07-22T20:17:00;4.53;;;2.95;;
75356;SDS011;63946;51.986;5.930;2023-07-22T20:19:29;4.03;;;2.60;;
75356;SDS011;63946;51.986;5.930;2023-07-22T20:21:59;3.70;;;2.55;;
75356;SDS011;63946;51.986;5.930;2023-07-22T20:24:29;5.80;;;3.67;;
75356;SDS011;63946;51.986;5.930;2023-07-22T20:27:00;7.03;;;2.70;;
75356;SDS011;63946;51.986;5.930;2023-07-22T20:29:29;4.97;;;2.90;;
75356;SDS011;63946;51.986;5.930;2023-07-22T20:31:58;6.45;;;3.40;;
75356;SDS011;63946;51.986;5.930;2023-07-22T20:34:31;4.82;;;3.08;;
75356;SDS011;63946;51.986;5.930;2023-07-22T20:37:00;4.38;;;3.08;;
75356;SDS011;63946;51.986;5.930;2023-07-22T20:39:36;6.53;;;3.17;;
75356;SDS011;63946;51.986;5.930;2023-07-22T20:42:07;3.88;;;2.63;;
75356;SDS011;63946;51.986;5.930;2023-07-22T20:44:36;5.85;;;3.38;;
75356;SDS011;63946;51.986;5.930;2023-07-22T20:47:08;4.65;;;3.03;;
75356;SDS011;63946;51.986;5.930;2023-07-22T20:49:36;4.47;;;2.95;;
75356;SDS011;63946;51.986;5.930;2023-07-22T20:52:08;4.43;;;3.13;;
75356;SDS011;63946;51.986;5.930;2023-07-22T20:54:36;6.40;;;3.70;;
75356;SDS011;63946;51.986;5.930;2023-07-22T20:57:08;5.75;;;2.67;;
75356;SDS011;63946;51.986;5.930;2023-07-22T20:59:36;5.90;;;3.53;;
75356;SDS011;63946;51.986;5.930;2023-07-22T21:02:05;5.53;;;3.78;;
75356;SDS011;63946;51.986;5.930;2023-07-22T21:04:41;5.03;;;3.22;;
75356;SDS011;63946;51.986;5.930;2023-07-22T21:07:12;4.18;;;2.90;;
75356;SDS011;63946;51.986;5.930;2023-07-22T21:09:44;4.68;;;2.95;;
75356;SDS011;63946;51.986;5.930;2023-07-22T21:12:12;4.88;;;3.45;;
75356;SDS011;63946;51.986;5.930;2023-07-22T21:14:41;4.03;;;2.45;;
75356;SDS011;63946;51.986;5.930;2023-07-22T21:17:10;4.82;;;2.67;;
75356;SDS011;63946;51.986;5.930;2023-07-22T21:19:39;5.65;;;3.30;;
75356;SDS011;63946;51.986;5.930;2023-07-22T21:22:08;6.60;;;3.50;;
75356;SDS011;63946;51.986;5.930;2023-07-22T21:24:37;4.90;;;2.67;;
75356;SDS011;63946;51.986;5.930;2023-07-22T21:27:09;4.90;;;3.20;;
75356;SDS011;63946;51.986;5.930;2023-07-22T21:29:39;4.00;;;3.55;;
75356;SDS011;63946;51.986;5.930;2023-07-22T21:32:08;5.97;;;3.33;;
75356;SDS011;63946;51.986;5.930;2023-07-22T21:34:36;5.88;;;3.45;;
75356;SDS011;63946;51.986;5.930;2023-07-22T21:37:08;4.15;;;2.50;;
75356;SDS011;63946;51.986;5.930;2023-07-22T21:39:39;4.97;;;3.50;;
75356;SDS011;63946;51.986;5.930;2023-07-22T21:42:09;4.68;;;3.15;;
75356;SDS011;63946;51.986;5.930;2023-07-22T21:44:37;4.80;;;3.05;;
75356;SDS011;63946;51.986;5.930;2023-07-22T21:47:06;5.80;;;3.38;;
75356;SDS011;63946;51.986;5.930;2023-07-22T21:49:35;6.43;;;3.60;;
75356;SDS011;63946;51.986;5.930;2023-07-22T21:52:04;4.57;;;3.00;;
75356;SDS011;63946;51.986;5.930;2023-07-22T21:54:35;4.65;;;3.58;;
75356;SDS011;63946;51.986;5.930;2023-07-22T21:57:04;5.38;;;2.95;;
75356;SDS011;63946;51.986;5.930;2023-07-22T21:59:33;5.22;;;3.58;;
75356;SDS011;63946;51.986;5.930;2023-07-22T22:02:08;4.65;;;3.30;;
75356;SDS011;63946;51.986;5.930;2023-07-22T22:04:39;5.03;;;3.40;;
75356;SDS011;63946;51.986;5.930;2023-07-22T22:07:10;5.88;;;3.15;;
75356;SDS011;63946;51.986;5.930;2023-07-22T22:09:38;6.00;;;4.03;;
75356;SDS011;63946;51.986;5.930;2023-07-22T22:12:07;5.13;;;3.58;;
75356;SDS011;63946;51.986;5.930;2023-07-22T22:14:36;4.70;;;2.97;;
75356;SDS011;63946;51.986;5.930;2023-07-22T22:17:05;5.03;;;3.58;;
75356;SDS011;63946;51.986;5.930;2023-07-22T22:19:37;6.28;;;3.58;;
75356;SDS011;63946;51.986;5.930;2023-07-22T22:22:06;5.75;;;3.50;;